• Join FlightAware (Why Join?)
  • Login
  • US Flag 
09:17PM EST


 

Airport Tracker/Info


-or-


 

Live Flight TrackerFlight Track Log ✈ SWA706 ✈ 11-May-2013 ✈ KSLC - KPHX

Flight Track Log - Related Links

Times and Time Zones

All times are in EDT time to prevent confusion due to time zone crossing. See the SWA706 flight status page for this flight to view local times or setup timezone preferences in your user account.

Time Position Orientation Groundspeed Altitude Reporting Facility
EDT Latitude Longitude Course Direction KTS MPH feet Rate Location/Type
08:44PM 40.8128 -111.9711 338° Northwest 144 166 5,900  Level Salt Lake Center
08:44PM 40.8150 -112.0106 274° West 194 223 6,700 2,400 Climbing Salt Lake Center
08:45PM 40.8186 -112.0481 277° West 213 245 8,300 2,700 Climbing Salt Lake Center
08:45PM 40.8264 -112.0917 283° West 240 276 9,400 2,160 Climbing Salt Lake Center
08:46PM 40.8253 -112.1394 268° West 257 296 10,500 2,640 Climbing Salt Lake Center
08:47PM 40.8153 -112.2003 258° West 273 314 12,400 3,000 Climbing Salt Lake Center
08:47PM 40.7967 -112.2383 237° Southwest 300 345 13,600 3,420 Climbing Salt Lake Center
08:48PM 40.7089 -112.2869 203° Southwest 346 398 17,500 3,540 Climbing Salt Lake Center
08:49PM 40.6081 -112.3047 188° South 364 419 20,800 3,060 Climbing Salt Lake Center
08:50PM 40.4992 -112.3247 188° South 395 455 23,700 2,760 Climbing Salt Lake Center
08:51PM 40.3822 -112.3497 189° South 422 486 26,500 2,520 Climbing Salt Lake Center
08:52PM 40.2667 -112.4083 201° Southwest 448 516 28,900 2,340 Climbing Salt Lake Center
08:53PM 40.1531 -112.4886 208° Southwest 463 533 31,300 2,640 Climbing Salt Lake Center
08:54PM 40.0400 -112.5625 207° Southwest 456 525 34,300 2,280 Climbing Salt Lake Center
08:55PM 39.9131 -112.5511 176° South 456 525 36,000 780 Climbing Salt Lake Center
08:56PM 39.7642 -112.5356 175° South 450 518 36,000  Level Salt Lake Center
08:57PM 39.6389 -112.5231 176° South 451 519 36,000  Level Salt Lake Center
08:58PM 39.5147 -112.5081 175° South 451 519 36,000  Level Salt Lake Center
08:59PM 39.3886 -112.4950 175° South 454 522 36,000  Level Salt Lake Center
09:00PM 39.2633 -112.4794 175° South 453 521 36,000  Level Salt Lake Center
09:01PM 39.1353 -112.4656 175° South 455 524 36,000  Level Salt Lake Center
09:02PM 39.0092 -112.4519 175° South 453 521 36,000  Level Salt Lake Center
09:03PM 38.8817 -112.4369 175° South 456 525 36,000  Level Salt Lake Center
09:04PM 38.7539 -112.4236 175° South 459 528 36,000  Level Salt Lake Center
09:05PM 38.6267 -112.4086 175° South 459 528 36,000  Level Salt Lake Center
09:06PM 38.4978 -112.3950 175° South 462 532 36,000  Level Salt Lake Center
09:07PM 38.3697 -112.3808 175° South 462 532 36,000  Level Salt Lake Center
09:08PM 38.2417 -112.3661 175° South 461 531 36,000  Level Salt Lake Center
09:09PM 38.1128 -112.3519 175° South 463 533 36,000  Level Salt Lake Center
09:10PM 37.9847 -112.3375 175° South 461 531 36,000  Level Salt Lake Center
09:11PM 37.8550 -112.3228 175° South 463 533 36,000  Level Salt Lake Center
09:12PM 37.7264 -112.3083 175° South 462 532 36,000  Level Salt Lake Center
09:13PM 37.5978 -112.3078 180° South 459 528 36,000  Level Salt Lake Center
09:14PM 37.4683 -112.3169 183° South 461 531 36,000  Level Salt Lake Center
09:15PM 37.3397 -112.3250 183° South 460 529 36,000  Level Salt Lake Center
09:16PM 37.2111 -112.3311 182° South 459 528 36,000  Level Salt Lake Center
09:18PM 37.0800 -112.3406 183° South 461 531 36,000  Level Los Angeles Center
09:19PM 36.9283 -112.3508 183° South 455 524 36,000 -60 Level Los Angeles Center
09:20PM 36.7753 -112.3606 183° South 456 525 35,900 -480 Descending Los Angeles Center
09:21PM 36.6747 -112.3667 183° South 453 521 35,100 -1,260 Descending Los Angeles Center
09:22PM 36.5208 -112.3758 183° South 458 527 33,400 -1,080 Descending Los Angeles Center
09:23PM 36.3911 -112.3828 182° South 462 532 33,000 -240 Descending Los Angeles Center
09:24PM 36.2617 -112.3906 183° South 464 534 33,000 -540 Level Los Angeles Center
09:25PM 36.1322 -112.3983 183° South 464 534 32,000 -960 Descending Los Angeles Center
09:26PM 36.0033 -112.4067 183° South 463 533 31,100 -960 Descending Los Angeles Center
09:27PM 35.8706 -112.4108 181° South 461 531 30,100 -1,020 Descending Los Angeles Center
09:28PM 35.7422 -112.4164 182° South 461 531 29,100 -540 Descending Los Angeles Center
09:29PM 35.6142 -112.4214 182° South 459 528 29,000 -60 Descending Los Angeles Center
09:30PM 35.4606 -112.4344 184° South 455 524 29,000  Level Los Angeles Center
09:31PM 35.3331 -112.4242 176° South 452 520 29,000  Level Los Angeles Center
09:32PM 35.2578 -112.4075 170° South 450 518 29,000  Level Albuquerque Center
09:33PM 35.1336 -112.3781 169° South 451 519 29,000  Level Albuquerque Center
09:34PM 35.0094 -112.3489 169° South 452 520 29,000  Level Albuquerque Center
09:35PM 34.8858 -112.3203 169° South 453 521 29,000 -240 Level Albuquerque Center
09:36PM 34.7647 -112.2919 169° South 449 517 28,600 -1,560 Descending Albuquerque Center
09:37PM 34.6378 -112.2631 169° South 454 522 25,900 -2,640 Descending Albuquerque Center
09:38PM 34.5192 -112.2367 170° South 447 514 23,300 -2,520 Descending Albuquerque Center
09:39PM 34.4078 -112.2111 169° South 429 494 20,800 -2,400 Descending Albuquerque Center
09:40PM 34.3019 -112.1858 169° South 407 468 18,500 -2,340 Descending Albuquerque Center
09:41PM 34.2003 -112.1625 169° South 387 445 16,100 -2,040 Descending Albuquerque Center
09:42PM 34.0842 -112.1364 169° South 364 419 14,400 -1,680 Descending Albuquerque Center
09:43PM 33.9975 -112.1450 185° South 325 374 12,700 -1,440 Descending Albuquerque Center
09:44PM 33.9119 -112.1542 185° South 315 362 11,500 -900 Descending Albuquerque Center
09:45PM 33.8389 -112.1706 191° South 278 320 10,900 -840 Descending Albuquerque Center
09:46PM 33.7703 -112.1853 190° South 258 297 9,800 -1,140 Descending Albuquerque Center
09:47PM 33.7019 -112.1994 190° South 252 290 8,700 -1,140 Descending Albuquerque Center
09:48PM 33.6336 -112.2136 190° South 250 288 7,500 -1,200 Descending Albuquerque Center
09:49PM 33.5658 -112.2253 188° South 247 284 6,300 -1,200 Descending Albuquerque Center
09:50PM 33.4989 -112.2300 183° South 243 280 5,200 -1,440 Descending Albuquerque Center
09:51PM 33.4556 -112.1869 140° Southeast 228 262 3,400 -1,380 Descending Albuquerque Center
09:52PM 33.4419 -112.1211 104° East 188 216 2,500 -780 Descending Albuquerque Center
09:53PM 33.4414 -112.0756 91° East 158 182 1,900 -660 Descending Albuquerque Center
09:54PM 33.4414 -112.0322 90° East 144 166 1,200 -420 Descending Albuquerque Center
09:55PM 33.4414 -111.9886 90° East 142 163 1,100 -120 Descending Albuquerque Center